sensor_id;sensor_type;location;lat;lon;timestamp;temperature;humidity
30244;DHT22;61465;53.652;9.792;2022-07-18T00:02:17;15.50;58.80
30244;DHT22;61465;53.652;9.792;2022-07-18T00:04:43;15.50;59.00
30244;DHT22;61465;53.652;9.792;2022-07-18T00:07:09;15.50;59.20
30244;DHT22;61465;53.652;9.792;2022-07-18T00:09:42;15.40;59.30
30244;DHT22;61465;53.652;9.792;2022-07-18T00:12:09;15.50;59.40
30244;DHT22;61465;53.652;9.792;2022-07-18T00:14:35;15.50;59.80
30244;DHT22;61465;53.652;9.792;2022-07-18T00:17:02;15.50;59.80
30244;DHT22;61465;53.652;9.792;2022-07-18T00:19:28;15.50;59.80
30244;DHT22;61465;53.652;9.792;2022-07-18T00:21:54;15.40;59.90
30244;DHT22;61465;53.652;9.792;2022-07-18T00:24:20;15.40;60.00
30244;DHT22;61465;53.652;9.792;2022-07-18T00:26:46;15.50;60.10
30244;DHT22;61465;53.652;9.792;2022-07-18T00:29:12;15.50;60.10
30244;DHT22;61465;53.652;9.792;2022-07-18T00:31:37;15.40;60.20
30244;DHT22;61465;53.652;9.792;2022-07-18T00:34:04;15.40;60.20
30244;DHT22;61465;53.652;9.792;2022-07-18T00:36:30;15.40;60.30
30244;DHT22;61465;53.652;9.792;2022-07-18T00:38:56;15.40;60.30
30244;DHT22;61465;53.652;9.792;2022-07-18T00:41:22;15.40;60.60
30244;DHT22;61465;53.652;9.792;2022-07-18T00:43:49;15.40;60.70
30244;DHT22;61465;53.652;9.792;2022-07-18T00:46:14;15.40;60.80
30244;DHT22;61465;53.652;9.792;2022-07-18T00:48:41;15.30;60.70
30244;DHT22;61465;53.652;9.792;2022-07-18T00:51:07;15.30;60.60
30244;DHT22;61465;53.652;9.792;2022-07-18T00:53:34;15.30;60.80
30244;DHT22;61465;53.652;9.792;2022-07-18T00:56:02;15.20;60.70
30244;DHT22;61465;53.652;9.792;2022-07-18T00:58:29;15.20;60.80
30244;DHT22;61465;53.652;9.792;2022-07-18T01:00:56;15.20;60.90
30244;DHT22;61465;53.652;9.792;2022-07-18T01:03:40;15.10;57.90
30244;DHT22;61465;53.652;9.792;2022-07-18T01:06:06;15.10;60.80
30244;DHT22;61465;53.652;9.792;2022-07-18T01:08:32;15.10;61.10
30244;DHT22;61465;53.652;9.792;2022-07-18T01:10:58;15.00;61.20
30244;DHT22;61465;53.652;9.792;2022-07-18T01:13:24;15.00;61.40
30244;DHT22;61465;53.652;9.792;2022-07-18T01:15:50;15.00;61.40
30244;DHT22;61465;53.652;9.792;2022-07-18T01:18:16;15.00;61.40
30244;DHT22;61465;53.652;9.792;2022-07-18T01:20:42;15.00;61.70
30244;DHT22;61465;53.652;9.792;2022-07-18T01:23:08;15.00;61.70
30244;DHT22;61465;53.652;9.792;2022-07-18T01:25:34;15.00;61.80
30244;DHT22;61465;53.652;9.792;2022-07-18T01:28:00;14.90;61.80
30244;DHT22;61465;53.652;9.792;2022-07-18T01:30:26;14.90;62.00
30244;DHT22;61465;53.652;9.792;2022-07-18T01:33:00;14.90;62.10
30244;DHT22;61465;53.652;9.792;2022-07-18T01:35:27;14.90;62.10
30244;DHT22;61465;53.652;9.792;2022-07-18T01:37:53;14.90;62.30
30244;DHT22;61465;53.652;9.792;2022-07-18T01:40:19;14.80;59.30
30244;DHT22;61465;53.652;9.792;2022-07-18T01:42:45;14.80;62.20
30244;DHT22;61465;53.652;9.792;2022-07-18T01:45:11;14.80;62.40
30244;DHT22;61465;53.652;9.792;2022-07-18T01:47:37;14.80;62.60
30244;DHT22;61465;53.652;9.792;2022-07-18T01:50:04;14.80;62.80
30244;DHT22;61465;53.652;9.792;2022-07-18T01:52:30;14.80;62.80
30244;DHT22;61465;53.652;9.792;2022-07-18T01:54:56;14.70;63.00
30244;DHT22;61465;53.652;9.792;2022-07-18T01:57:22;14.70;63.20
30244;DHT22;61465;53.652;9.792;2022-07-18T01:59:49;14.70;63.30
30244;DHT22;61465;53.652;9.792;2022-07-18T02:02:14;14.70;60.80
30244;DHT22;61465;53.652;9.792;2022-07-18T02:04:40;14.80;63.40
30244;DHT22;61465;53.652;9.792;2022-07-18T02:07:24;14.70;63.90
30244;DHT22;61465;53.652;9.792;2022-07-18T02:09:50;14.70;63.60
30244;DHT22;61465;53.652;9.792;2022-07-18T02:12:16;14.70;63.70
30244;DHT22;61465;53.652;9.792;2022-07-18T02:14:41;14.70;63.80
30244;DHT22;61465;53.652;9.792;2022-07-18T02:17:07;14.70;63.90
30244;DHT22;61465;53.652;9.792;2022-07-18T02:19:33;14.70;64.00
30244;DHT22;61465;53.652;9.792;2022-07-18T02:21:58;14.70;64.10
30244;DHT22;61465;53.652;9.792;2022-07-18T02:24:25;14.70;64.20
30244;DHT22;61465;53.652;9.792;2022-07-18T02:26:50;14.70;64.20
30244;DHT22;61465;53.652;9.792;2022-07-18T02:29:16;14.70;64.30
30244;DHT22;61465;53.652;9.792;2022-07-18T02:31:42;14.70;64.30
30244;DHT22;61465;53.652;9.792;2022-07-18T02:34:07;14.70;64.40
30244;DHT22;61465;53.652;9.792;2022-07-18T02:36:37;14.60;64.60
30244;DHT22;61465;53.652;9.792;2022-07-18T02:39:03;14.60;64.50
30244;DHT22;61465;53.652;9.792;2022-07-18T02:41:30;14.60;61.60
30244;DHT22;61465;53.652;9.792;2022-07-18T02:43:56;14.60;64.40
30244;DHT22;61465;53.652;9.792;2022-07-18T02:46:21;14.50;64.50
30244;DHT22;61465;53.652;9.792;2022-07-18T02:48:47;14.50;64.70
30244;DHT22;61465;53.652;9.792;2022-07-18T02:51:13;14.50;64.80
30244;DHT22;61465;53.652;9.792;2022-07-18T02:53:38;14.60;65.10
30244;DHT22;61465;53.652;9.792;2022-07-18T02:56:04;14.50;65.20
30244;DHT22;61465;53.652;9.792;2022-07-18T02:58:29;14.50;65.10
30244;DHT22;61465;53.652;9.792;2022-07-18T03:00:55;14.50;65.20
30244;DHT22;61465;53.652;9.792;2022-07-18T03:03:22;14.50;65.30
30244;DHT22;61465;53.652;9.792;2022-07-18T03:05:47;14.50;65.50
30244;DHT22;61465;53.652;9.792;2022-07-18T03:08:13;14.50;65.60
30244;DHT22;61465;53.652;9.792;2022-07-18T03:10:39;14.50;65.60
30244;DHT22;61465;53.652;9.792;2022-07-18T03:13:04;14.50;65.70
30244;DHT22;61465;53.652;9.792;2022-07-18T03:15:31;14.50;65.90
30244;DHT22;61465;53.652;9.792;2022-07-18T03:17:56;14.50;66.10
30244;DHT22;61465;53.652;9.792;2022-07-18T03:20:22;14.50;66.20
30244;DHT22;61465;53.652;9.792;2022-07-18T03:22:48;14.50;66.10
30244;DHT22;61465;53.652;9.792;2022-07-18T03:25:14;14.50;66.20
30244;DHT22;61465;53.652;9.792;2022-07-18T03:27:39;14.50;66.40
30244;DHT22;61465;53.652;9.792;2022-07-18T03:30:05;14.50;66.50
30244;DHT22;61465;53.652;9.792;2022-07-18T03:32:31;14.50;66.60
30244;DHT22;61465;53.652;9.792;2022-07-18T03:34:57;14.50;66.80
30244;DHT22;61465;53.652;9.792;2022-07-18T03:37:23;14.50;66.90
30244;DHT22;61465;53.652;9.792;2022-07-18T03:39:49;14.40;66.80
30244;DHT22;61465;53.652;9.792;2022-07-18T03:42:14;14.50;66.90
30244;DHT22;61465;53.652;9.792;2022-07-18T03:44:40;14.40;67.10
30244;DHT22;61465;53.652;9.792;2022-07-18T03:47:05;14.40;67.10
30244;DHT22;61465;53.652;9.792;2022-07-18T03:49:31;14.50;67.20
30244;DHT22;61465;53.652;9.792;2022-07-18T03:51:56;14.50;67.40
30244;DHT22;61465;53.652;9.792;2022-07-18T03:54:22;14.50;67.70
30244;DHT22;61465;53.652;9.792;2022-07-18T03:56:49;14.50;67.60
30244;DHT22;61465;53.652;9.792;2022-07-18T03:59:14;14.50;67.70
30244;DHT22;61465;53.652;9.792;2022-07-18T04:01:40;14.50;67.80
30244;DHT22;61465;53.652;9.792;2022-07-18T04:04:06;14.50;67.90
30244;DHT22;61465;53.652;9.792;2022-07-18T04:06:31;14.50;68.00
30244;DHT22;61465;53.652;9.792;2022-07-18T04:08:57;14.50;68.10
30244;DHT22;61465;53.652;9.792;2022-07-18T04:11:22;14.50;68.30
30244;DHT22;61465;53.652;9.792;2022-07-18T04:13:53;14.50;68.50
30244;DHT22;61465;53.652;9.792;2022-07-18T04:16:19;14.50;68.70
30244;DHT22;61465;53.652;9.792;2022-07-18T04:18:45;14.50;68.90
30244;DHT22;61465;53.652;9.792;2022-07-18T04:21:11;14.60;68.90
30244;DHT22;61465;53.652;9.792;2022-07-18T04:23:37;14.60;69.00
30244;DHT22;61465;53.652;9.792;2022-07-18T04:26:02;14.60;69.10
30244;DHT22;61465;53.652;9.792;2022-07-18T04:28:29;14.70;69.30
30244;DHT22;61465;53.652;9.792;2022-07-18T04:30:55;14.70;69.30
30244;DHT22;61465;53.652;9.792;2022-07-18T04:33:21;14.70;69.50
30244;DHT22;61465;53.652;9.792;2022-07-18T04:35:48;14.80;69.70
30244;DHT22;61465;53.652;9.792;2022-07-18T04:38:14;14.80;70.40
30244;DHT22;61465;53.652;9.792;2022-07-18T04:40:40;14.90;70.10
30244;DHT22;61465;53.652;9.792;2022-07-18T04:43:06;14.90;70.20
30244;DHT22;61465;53.652;9.792;2022-07-18T04:45:33;15.00;70.50
30244;DHT22;61465;53.652;9.792;2022-07-18T04:47:58;15.10;70.70
30244;DHT22;61465;53.652;9.792;2022-07-18T04:50:25;15.20;70.90
30244;DHT22;61465;53.652;9.792;2022-07-18T04:52:51;15.30;71.10
30244;DHT22;61465;53.652;9.792;2022-07-18T04:55:19;15.40;71.30
30244;DHT22;61465;53.652;9.792;2022-07-18T04:57:46;15.50;71.40
30244;DHT22;61465;53.652;9.792;2022-07-18T05:00:23;15.60;71.60
30244;DHT22;61465;53.652;9.792;2022-07-18T05:02:51;15.60;71.40
30244;DHT22;61465;53.652;9.792;2022-07-18T05:05:18;15.70;71.80
30244;DHT22;61465;53.652;9.792;2022-07-18T05:07:45;15.80;72.10
30244;DHT22;61465;53.652;9.792;2022-07-18T05:10:16;15.90;72.10
30244;DHT22;61465;53.652;9.792;2022-07-18T05:12:43;16.00;72.30
30244;DHT22;61465;53.652;9.792;2022-07-18T05:15:12;16.10;72.50
30244;DHT22;61465;53.652;9.792;2022-07-18T05:17:39;16.20;72.50
30244;DHT22;61465;53.652;9.792;2022-07-18T05:20:06;16.30;72.50
30244;DHT22;61465;53.652;9.792;2022-07-18T05:22:33;16.40;72.60
30244;DHT22;61465;53.652;9.792;2022-07-18T05:24:59;16.40;72.60
30244;DHT22;61465;53.652;9.792;2022-07-18T05:27:25;16.50;72.60
30244;DHT22;61465;53.652;9.792;2022-07-18T05:29:50;16.60;72.70
30244;DHT22;61465;53.652;9.792;2022-07-18T05:32:16;16.70;72.80
30244;DHT22;61465;53.652;9.792;2022-07-18T05:34:42;16.80;72.80
30244;DHT22;61465;53.652;9.792;2022-07-18T05:37:07;16.90;72.90
30244;DHT22;61465;53.652;9.792;2022-07-18T05:39:33;17.00;73.00
30244;DHT22;61465;53.652;9.792;2022-07-18T05:41:59;17.10;73.00
30244;DHT22;61465;53.652;9.792;2022-07-18T05:44:24;17.20;73.10
30244;DHT22;61465;53.652;9.792;2022-07-18T05:46:50;17.20;73.10
30244;DHT22;61465;53.652;9.792;2022-07-18T05:49:16;17.40;73.30
30244;DHT22;61465;53.652;9.792;2022-07-18T05:51:42;17.50;73.40
30244;DHT22;61465;53.652;9.792;2022-07-18T05:54:08;17.60;73.50
30244;DHT22;61465;53.652;9.792;2022-07-18T05:56:34;17.70;73.40
30244;DHT22;61465;53.652;9.792;2022-07-18T05:59:01;17.70;73.40
30244;DHT22;61465;53.652;9.792;2022-07-18T06:01:26;17.80;73.40
30244;DHT22;61465;53.652;9.792;2022-07-18T06:03:55;17.90;73.50
30244;DHT22;61465;53.652;9.792;2022-07-18T06:06:21;18.10;73.70
30244;DHT22;61465;53.652;9.792;2022-07-18T06:08:49;18.20;73.80
30244;DHT22;61465;53.652;9.792;2022-07-18T06:11:15;18.40;73.90
30244;DHT22;61465;53.652;9.792;2022-07-18T06:13:41;18.50;73.90
30244;DHT22;61465;53.652;9.792;2022-07-18T06:16:09;18.70;73.90
30244;DHT22;61465;53.652;9.792;2022-07-18T06:18:34;18.80;74.00
30244;DHT22;61465;53.652;9.792;2022-07-18T06:21:01;18.90;73.90
30244;DHT22;61465;53.652;9.792;2022-07-18T06:23:27;19.00;73.90
30244;DHT22;61465;53.652;9.792;2022-07-18T06:25:54;19.20;73.80
30244;DHT22;61465;53.652;9.792;2022-07-18T06:28:20;19.30;74.10
30244;DHT22;61465;53.652;9.792;2022-07-18T06:30:46;19.40;74.10
30244;DHT22;61465;53.652;9.792;2022-07-18T06:33:12;19.50;73.90
30244;DHT22;61465;53.652;9.792;2022-07-18T06:35:39;19.70;74.00
30244;DHT22;61465;53.652;9.792;2022-07-18T06:38:05;19.80;74.00
30244;DHT22;61465;53.652;9.792;2022-07-18T06:40:31;20.00;74.00
30244;DHT22;61465;53.652;9.792;2022-07-18T06:42:58;20.20;74.00
30244;DHT22;61465;53.652;9.792;2022-07-18T06:45:24;20.40;74.10
30244;DHT22;61465;53.652;9.792;2022-07-18T06:47:50;20.70;74.20
30244;DHT22;61465;53.652;9.792;2022-07-18T06:50:17;21.10;74.30
30244;DHT22;61465;53.652;9.792;2022-07-18T06:52:44;21.20;74.20
30244;DHT22;61465;53.652;9.792;2022-07-18T06:55:11;21.30;74.00
30244;DHT22;61465;53.652;9.792;2022-07-18T06:57:38;21.40;73.80
30244;DHT22;61465;53.652;9.792;2022-07-18T07:00:05;21.60;73.70
30244;DHT22;61465;53.652;9.792;2022-07-18T07:02:32;21.90;73.70
30244;DHT22;61465;53.652;9.792;2022-07-18T07:04:57;22.20;73.80
30244;DHT22;61465;53.652;9.792;2022-07-18T07:07:23;22.40;73.30
30244;DHT22;61465;53.652;9.792;2022-07-18T07:09:49;22.50;73.10
30244;DHT22;61465;53.652;9.792;2022-07-18T07:12:16;22.50;72.90
30244;DHT22;61465;53.652;9.792;2022-07-18T07:14:42;22.60;72.80
30244;DHT22;61465;53.652;9.792;2022-07-18T07:17:08;22.80;72.60
30244;DHT22;61465;53.652;9.792;2022-07-18T07:19:34;23.00;72.80
30244;DHT22;61465;53.652;9.792;2022-07-18T07:22:00;23.10;72.40
30244;DHT22;61465;53.652;9.792;2022-07-18T07:24:30;23.30;72.40
30244;DHT22;61465;53.652;9.792;2022-07-18T07:26:57;23.40;72.20
30244;DHT22;61465;53.652;9.792;2022-07-18T07:29:23;23.50;71.90
30244;DHT22;61465;53.652;9.792;2022-07-18T07:31:49;23.60;71.80
30244;DHT22;61465;53.652;9.792;2022-07-18T07:34:15;23.90;71.80
30244;DHT22;61465;53.652;9.792;2022-07-18T07:36:41;24.00;71.30
30244;DHT22;61465;53.652;9.792;2022-07-18T07:39:06;24.20;71.40
30244;DHT22;61465;53.652;9.792;2022-07-18T07:41:32;24.40;71.10
30244;DHT22;61465;53.652;9.792;2022-07-18T07:43:57;24.50;71.30
30244;DHT22;61465;53.652;9.792;2022-07-18T07:46:23;24.70;71.10
30244;DHT22;61465;53.652;9.792;2022-07-18T07:48:49;24.80;71.10
30244;DHT22;61465;53.652;9.792;2022-07-18T07:51:15;24.90;70.80
30244;DHT22;61465;53.652;9.792;2022-07-18T07:53:41;25.30;71.10
30244;DHT22;61465;53.652;9.792;2022-07-18T07:56:07;25.50;71.10
30244;DHT22;61465;53.652;9.792;2022-07-18T07:58:32;25.70;71.00
30244;DHT22;61465;53.652;9.792;2022-07-18T08:00:58;26.00;71.00
30244;DHT22;61465;53.652;9.792;2022-07-18T08:03:24;26.30;70.80
30244;DHT22;61465;53.652;9.792;2022-07-18T08:05:50;26.40;70.50
30244;DHT22;61465;53.652;9.792;2022-07-18T08:08:16;26.60;70.30
30244;DHT22;61465;53.652;9.792;2022-07-18T08:10:43;26.80;70.40
30244;DHT22;61465;53.652;9.792;2022-07-18T08:13:09;27.00;70.40
30244;DHT22;61465;53.652;9.792;2022-07-18T08:15:35;27.30;70.10
30244;DHT22;61465;53.652;9.792;2022-07-18T08:18:01;27.40;69.50
30244;DHT22;61465;53.652;9.792;2022-07-18T08:20:27;27.40;69.20
30244;DHT22;61465;53.652;9.792;2022-07-18T08:22:57;27.40;69.00
30244;DHT22;61465;53.652;9.792;2022-07-18T08:25:24;27.50;69.00
30244;DHT22;61465;53.652;9.792;2022-07-18T08:27:50;27.40;68.30
30244;DHT22;61465;53.652;9.792;2022-07-18T08:30:16;27.50;68.40
30244;DHT22;61465;53.652;9.792;2022-07-18T08:32:42;27.90;68.90
30244;DHT22;61465;53.652;9.792;2022-07-18T08:35:09;28.60;68.70
30244;DHT22;61465;53.652;9.792;2022-07-18T08:37:35;29.20;68.80
30244;DHT22;61465;53.652;9.792;2022-07-18T08:40:01;29.90;68.60
30244;DHT22;61465;53.652;9.792;2022-07-18T08:42:27;30.50;68.30
30244;DHT22;61465;53.652;9.792;2022-07-18T08:44:55;30.80;71.90
30244;DHT22;61465;53.652;9.792;2022-07-18T08:47:22;30.80;67.40
30244;DHT22;61465;53.652;9.792;2022-07-18T08:49:49;31.00;67.10
30244;DHT22;61465;53.652;9.792;2022-07-18T08:52:15;31.20;66.50
30244;DHT22;61465;53.652;9.792;2022-07-18T08:54:41;31.30;66.00
30244;DHT22;61465;53.652;9.792;2022-07-18T08:57:07;31.40;65.90
30244;DHT22;61465;53.652;9.792;2022-07-18T08:59:33;31.40;70.10
30244;DHT22;61465;53.652;9.792;2022-07-18T09:01:59;31.80;66.40
30244;DHT22;61465;53.652;9.792;2022-07-18T09:04:40;32.40;66.20
30244;DHT22;61465;53.652;9.792;2022-07-18T09:10:49;33.50;68.30
30244;DHT22;61465;53.652;9.792;2022-07-18T09:13:16;33.90;67.60
30244;DHT22;61465;53.652;9.792;2022-07-18T09:16:02;34.40;65.30
30244;DHT22;61465;53.652;9.792;2022-07-18T09:18:32;35.10;68.00
30244;DHT22;61465;53.652;9.792;2022-07-18T09:21:00;35.60;65.20
30244;DHT22;61465;53.652;9.792;2022-07-18T09:23:29;36.00;63.70
30244;DHT22;61465;53.652;9.792;2022-07-18T09:25:54;36.30;63.50
30244;DHT22;61465;53.652;9.792;2022-07-18T09:28:20;36.50;62.10
30244;DHT22;61465;53.652;9.792;2022-07-18T09:30:46;36.60;67.70
30244;DHT22;61465;53.652;9.792;2022-07-18T09:33:11;36.90;62.50
30244;DHT22;61465;53.652;9.792;2022-07-18T09:35:43;37.10;67.90
30244;DHT22;61465;53.652;9.792;2022-07-18T09:38:11;37.70;63.60
30244;DHT22;61465;53.652;9.792;2022-07-18T09:40:43;38.00;61.10
30244;DHT22;61465;53.652;9.792;2022-07-18T09:43:14;38.30;60.40
30244;DHT22;61465;53.652;9.792;2022-07-18T09:45:51;38.60;60.60
30244;DHT22;61465;53.652;9.792;2022-07-18T09:48:20;38.50;61.40
30244;DHT22;61465;53.652;9.792;2022-07-18T09:50:55;38.40;58.70
30244;DHT22;61465;53.652;9.792;2022-07-18T09:53:38;38.20;57.40
30244;DHT22;61465;53.652;9.792;2022-07-18T09:56:09;37.60;58.30
30244;DHT22;61465;53.652;9.792;2022-07-18T09:58:41;37.10;55.40
30244;DHT22;61465;53.652;9.792;2022-07-18T10:01:09;37.00;55.30
30244;DHT22;61465;53.652;9.792;2022-07-18T10:03:35;36.90;54.20
30244;DHT22;61465;53.652;9.792;2022-07-18T10:06:02;37.20;53.80
30244;DHT22;61465;53.652;9.792;2022-07-18T10:08:30;37.50;53.70
30244;DHT22;61465;53.652;9.792;2022-07-18T10:10:57;38.00;53.90
30244;DHT22;61465;53.652;9.792;2022-07-18T10:13:26;38.30;52.90
30244;DHT22;61465;53.652;9.792;2022-07-18T10:15:53;38.60;52.60
30244;DHT22;61465;53.652;9.792;2022-07-18T10:18:21;38.70;51.70
30244;DHT22;61465;53.652;9.792;2022-07-18T10:23:33;38.90;52.70
30244;DHT22;61465;53.652;9.792;2022-07-18T10:31:19;38.30;49.40
30244;DHT22;61465;53.652;9.792;2022-07-18T10:33:45;37.80;46.70
30244;DHT22;61465;53.652;9.792;2022-07-18T10:36:13;37.20;50.10
30244;DHT22;61465;53.652;9.792;2022-07-18T10:41:28;36.10;48.10
30244;DHT22;61465;53.652;9.792;2022-07-18T10:43:54;35.70;45.50
30244;DHT22;61465;53.652;9.792;2022-07-18T10:46:21;35.40;45.00
30244;DHT22;61465;53.652;9.792;2022-07-18T10:48:48;35.10;44.80
30244;DHT22;61465;53.652;9.792;2022-07-18T10:51:15;34.80;44.90
30244;DHT22;61465;53.652;9.792;2022-07-18T10:59:15;34.30;45.40
30244;DHT22;61465;53.652;9.792;2022-07-18T11:01:50;34.10;44.40
30244;DHT22;61465;53.652;9.792;2022-07-18T11:04:30;33.90;43.80
30244;DHT22;61465;53.652;9.792;2022-07-18T11:09:43;33.50;43.80
30244;DHT22;61465;53.652;9.792;2022-07-18T11:15:12;33.20;43.30
30244;DHT22;61465;53.652;9.792;2022-07-18T11:17:58;33.00;43.50
30244;DHT22;61465;53.652;9.792;2022-07-18T11:22:51;32.90;41.80
30244;DHT22;61465;53.652;9.792;2022-07-18T11:25:17;32.70;41.50
30244;DHT22;61465;53.652;9.792;2022-07-18T11:27:44;32.60;41.50
30244;DHT22;61465;53.652;9.792;2022-07-18T11:30:10;32.50;41.40
30244;DHT22;61465;53.652;9.792;2022-07-18T11:32:36;32.40;42.80
30244;DHT22;61465;53.652;9.792;2022-07-18T11:35:02;32.30;41.70
30244;DHT22;61465;53.652;9.792;2022-07-18T11:37:31;32.30;41.30
30244;DHT22;61465;53.652;9.792;2022-07-18T11:40:04;32.20;41.20
30244;DHT22;61465;53.652;9.792;2022-07-18T11:42:38;32.20;41.60
30244;DHT22;61465;53.652;9.792;2022-07-18T11:45:09;32.10;41.50
30244;DHT22;61465;53.652;9.792;2022-07-18T11:47:49;32.10;40.80
30244;DHT22;61465;53.652;9.792;2022-07-18T11:50:17;32.00;41.10
30244;DHT22;61465;53.652;9.792;2022-07-18T11:52:44;32.00;40.50
30244;DHT22;61465;53.652;9.792;2022-07-18T11:55:11;32.00;40.30
30244;DHT22;61465;53.652;9.792;2022-07-18T11:57:38;31.90;40.20
30244;DHT22;61465;53.652;9.792;2022-07-18T12:00:19;31.90;39.80
30244;DHT22;61465;53.652;9.792;2022-07-18T12:05:39;31.80;40.40
30244;DHT22;61465;53.652;9.792;2022-07-18T12:08:34;31.70;39.80
30244;DHT22;61465;53.652;9.792;2022-07-18T12:11:04;31.60;40.20
30244;DHT22;61465;53.652;9.792;2022-07-18T12:16:34;31.50;40.00
30244;DHT22;61465;53.652;9.792;2022-07-18T12:19:13;31.40;40.10
30244;DHT22;61465;53.652;9.792;2022-07-18T12:21:46;31.40;40.00
30244;DHT22;61465;53.652;9.792;2022-07-18T12:24:20;31.40;39.80
30244;DHT22;61465;53.652;9.792;2022-07-18T12:27:20;31.30;39.80
30244;DHT22;61465;53.652;9.792;2022-07-18T12:32:53;31.10;39.50
30244;DHT22;61465;53.652;9.792;2022-07-18T12:35:31;30.90;39.60
30244;DHT22;61465;53.652;9.792;2022-07-18T12:38:09;30.90;39.60
30244;DHT22;61465;53.652;9.792;2022-07-18T12:40:59;30.80;39.40
30244;DHT22;61465;53.652;9.792;2022-07-18T12:43:34;30.70;39.30
30244;DHT22;61465;53.652;9.792;2022-07-18T12:46:10;30.70;39.20
30244;DHT22;61465;53.652;9.792;2022-07-18T12:48:36;30.70;38.90
30244;DHT22;61465;53.652;9.792;2022-07-18T12:51:07;30.60;38.80
30244;DHT22;61465;53.652;9.792;2022-07-18T12:53:36;30.60;38.80
30244;DHT22;61465;53.652;9.792;2022-07-18T12:56:03;30.60;38.70
30244;DHT22;61465;53.652;9.792;2022-07-18T12:58:28;30.60;38.60
30244;DHT22;61465;53.652;9.792;2022-07-18T13:00:54;30.60;39.20
30244;DHT22;61465;53.652;9.792;2022-07-18T13:03:23;30.60;38.80
30244;DHT22;61465;53.652;9.792;2022-07-18T13:05:49;30.60;38.70
30244;DHT22;61465;53.652;9.792;2022-07-18T13:08:15;30.70;38.90
30244;DHT22;61465;53.652;9.792;2022-07-18T13:10:41;30.70;38.90
30244;DHT22;61465;53.652;9.792;2022-07-18T13:13:07;30.80;39.10
30244;DHT22;61465;53.652;9.792;2022-07-18T13:15:33;30.80;39.60
30244;DHT22;61465;53.652;9.792;2022-07-18T13:17:59;30.90;39.20
30244;DHT22;61465;53.652;9.792;2022-07-18T13:20:26;30.90;39.70
30244;DHT22;61465;53.652;9.792;2022-07-18T13:22:53;31.00;39.40
30244;DHT22;61465;53.652;9.792;2022-07-18T13:25:20;31.10;39.40
30244;DHT22;61465;53.652;9.792;2022-07-18T13:27:47;31.10;39.20
30244;DHT22;61465;53.652;9.792;2022-07-18T13:30:13;31.20;39.20
30244;DHT22;61465;53.652;9.792;2022-07-18T13:32:38;31.20;38.90
30244;DHT22;61465;53.652;9.792;2022-07-18T13:35:04;31.30;39.00
30244;DHT22;61465;53.652;9.792;2022-07-18T13:37:30;31.30;38.60
30244;DHT22;61465;53.652;9.792;2022-07-18T13:39:56;31.30;38.50
30244;DHT22;61465;53.652;9.792;2022-07-18T13:42:22;31.30;38.50
30244;DHT22;61465;53.652;9.792;2022-07-18T13:44:47;31.30;38.60
30244;DHT22;61465;53.652;9.792;2022-07-18T13:47:15;31.30;38.80
30244;DHT22;61465;53.652;9.792;2022-07-18T13:49:41;31.40;38.60
30244;DHT22;61465;53.652;9.792;2022-07-18T13:52:07;31.30;38.40
30244;DHT22;61465;53.652;9.792;2022-07-18T13:54:32;31.30;38.50
30244;DHT22;61465;53.652;9.792;2022-07-18T13:56:58;31.30;38.20
30244;DHT22;61465;53.652;9.792;2022-07-18T13:59:24;31.30;38.30
30244;DHT22;61465;53.652;9.792;2022-07-18T14:01:50;31.30;38.30
30244;DHT22;61465;53.652;9.792;2022-07-18T14:04:16;31.30;38.10
30244;DHT22;61465;53.652;9.792;2022-07-18T14:06:44;31.20;37.50
30244;DHT22;61465;53.652;9.792;2022-07-18T14:09:10;31.20;37.20
30244;DHT22;61465;53.652;9.792;2022-07-18T14:11:37;31.10;37.20
30244;DHT22;61465;53.652;9.792;2022-07-18T14:14:07;31.10;37.20
30244;DHT22;61465;53.652;9.792;2022-07-18T14:16:32;31.00;36.80
30244;DHT22;61465;53.652;9.792;2022-07-18T14:18:58;30.90;36.40
30244;DHT22;61465;53.652;9.792;2022-07-18T14:21:24;30.80;36.30
30244;DHT22;61465;53.652;9.792;2022-07-18T14:23:50;30.70;36.10
30244;DHT22;61465;53.652;9.792;2022-07-18T14:26:16;30.70;36.00
30244;DHT22;61465;53.652;9.792;2022-07-18T14:28:42;30.60;35.80
30244;DHT22;61465;53.652;9.792;2022-07-18T14:31:08;30.50;35.80
30244;DHT22;61465;53.652;9.792;2022-07-18T14:33:33;30.40;35.70
30244;DHT22;61465;53.652;9.792;2022-07-18T14:35:59;30.40;35.60
30244;DHT22;61465;53.652;9.792;2022-07-18T14:38:25;30.40;35.70
30244;DHT22;61465;53.652;9.792;2022-07-18T14:40:50;30.40;35.60
30244;DHT22;61465;53.652;9.792;2022-07-18T14:43:16;30.30;35.50
30244;DHT22;61465;53.652;9.792;2022-07-18T14:45:42;30.30;35.70
30244;DHT22;61465;53.652;9.792;2022-07-18T14:48:08;30.20;35.50
30244;DHT22;61465;53.652;9.792;2022-07-18T14:50:35;30.20;35.50
30244;DHT22;61465;53.652;9.792;2022-07-18T14:53:00;30.20;35.50
30244;DHT22;61465;53.652;9.792;2022-07-18T14:55:26;30.10;35.40
30244;DHT22;61465;53.652;9.792;2022-07-18T14:57:52;30.10;35.40
30244;DHT22;61465;53.652;9.792;2022-07-18T15:00:18;30.10;35.40
30244;DHT22;61465;53.652;9.792;2022-07-18T15:02:44;30.10;35.30
30244;DHT22;61465;53.652;9.792;2022-07-18T15:05:10;30.10;35.20
30244;DHT22;61465;53.652;9.792;2022-07-18T15:07:36;30.00;35.00
30244;DHT22;61465;53.652;9.792;2022-07-18T15:10:03;30.00;35.00
30244;DHT22;61465;53.652;9.792;2022-07-18T15:12:29;29.90;34.90
30244;DHT22;61465;53.652;9.792;2022-07-18T15:14:57;29.90;34.90
30244;DHT22;61465;53.652;9.792;2022-07-18T15:17:23;29.80;34.90
30244;DHT22;61465;53.652;9.792;2022-07-18T15:19:49;29.70;35.10
30244;DHT22;61465;53.652;9.792;2022-07-18T15:22:15;29.70;34.90
30244;DHT22;61465;53.652;9.792;2022-07-18T15:24:41;29.60;34.90
30244;DHT22;61465;53.652;9.792;2022-07-18T15:27:06;29.60;35.00
30244;DHT22;61465;53.652;9.792;2022-07-18T15:29:33;29.50;35.00
30244;DHT22;61465;53.652;9.792;2022-07-18T15:32:02;29.50;34.60
30244;DHT22;61465;53.652;9.792;2022-07-18T15:34:33;29.40;34.80
30244;DHT22;61465;53.652;9.792;2022-07-18T15:36:59;29.40;34.60
30244;DHT22;61465;53.652;9.792;2022-07-18T15:39:25;29.30;34.60
30244;DHT22;61465;53.652;9.792;2022-07-18T15:41:51;29.30;34.30
30244;DHT22;61465;53.652;9.792;2022-07-18T15:44:17;29.30;34.30
30244;DHT22;61465;53.652;9.792;2022-07-18T15:46:42;29.20;34.10
30244;DHT22;61465;53.652;9.792;2022-07-18T15:49:08;29.20;34.20
30244;DHT22;61465;53.652;9.792;2022-07-18T15:51:34;29.10;34.10
30244;DHT22;61465;53.652;9.792;2022-07-18T15:53:59;29.10;34.00
30244;DHT22;61465;53.652;9.792;2022-07-18T15:56:25;29.00;34.00
30244;DHT22;61465;53.652;9.792;2022-07-18T15:58:51;29.00;34.00
30244;DHT22;61465;53.652;9.792;2022-07-18T16:01:16;28.90;33.90
30244;DHT22;61465;53.652;9.792;2022-07-18T16:03:42;28.90;33.80
30244;DHT22;61465;53.652;9.792;2022-07-18T16:06:08;28.90;33.70
30244;DHT22;61465;53.652;9.792;2022-07-18T16:08:33;28.80;33.70